Time;durP1;ratioP1;P1;durP2;ratioP2;P2;SDS_P1;SDS_P2;PMS_P1;PMS_P2;Temp;Humidity;BMP_temperature;BMP_pressure;BME280_temperature;BME280_humidity;BME280_pressure;Samples;Min_cycle;Max_cycle;Signal;HPM_P1;HPM_P2
2022/10/11 00:01:15;;;;;;;12.30;3.28;;;6.10;99.90;;;;;;5060897;28;20542;-61
2022/10/11 00:03:44;;;;;;;10.60;2.63;;;6.10;99.90;;;;;;5060994;28;20071;-60
2022/10/11 00:06:10;;;;;;;11.23;3.05;;;6.00;99.90;;;;;;5061310;28;20048;-61
2022/10/11 00:08:36;;;;;;;12.43;3.58;;;6.00;99.90;;;;;;5068373;28;20044;-61
2022/10/11 00:11:05;;;;;;;10.50;3.05;;;6.00;99.90;;;;;;5061041;28;20051;-60
2022/10/11 00:13:31;;;;;;;14.77;2.85;;;6.10;99.90;;;;;;5067459;28;20134;-61
2022/10/11 00:15:57;;;;;;;10.18;2.92;;;6.00;99.90;;;;;;5049632;28;20052;-60
2022/10/11 00:18:23;;;;;;;11.98;3.00;;;6.10;99.90;;;;;;5053782;28;20602;-61
2022/10/11 00:20:49;;;;;;;16.67;3.20;;;6.00;99.90;;;;;;5054673;28;20049;-61
2022/10/11 00:23:16;;;;;;;8.52;2.63;;;6.00;99.90;;;;;;5061098;28;20143;-61
2022/10/11 00:25:42;;;;;;;10.45;2.70;;;6.10;99.90;;;;;;5062160;28;20521;-60
2022/10/11 00:28:08;;;;;;;11.90;3.55;;;6.00;99.90;;;;;;5066757;28;20074;-59
2022/10/11 00:30:33;;;;;;;14.93;3.10;;;6.00;99.90;;;;;;5061458;28;20048;-61
2022/10/11 00:32:59;;;;;;;9.68;3.22;;;6.00;99.90;;;;;;5067028;28;20067;-61
2022/10/11 00:35:25;;;;;;;15.73;2.45;;;5.90;99.90;;;;;;5060966;28;20113;-61
2022/10/11 00:37:54;;;;;;;16.00;4.00;;;6.00;99.90;;;;;;5067253;28;20044;-61
2022/10/11 00:40:20;;;;;;;9.43;1.98;;;5.90;99.90;;;;;;5067268;28;20161;-59
2022/10/11 00:42:46;;;;;;;12.75;2.97;;;5.90;99.90;;;;;;5061888;28;20044;-61
2022/10/11 00:45:33;;;;;;;9.55;2.10;;;5.90;99.90;;;;;;5061130;28;20044;-61
2022/10/11 00:48:09;;;;;;;10.75;2.20;;;6.00;99.90;;;;;;5064291;28;20113;-60
2022/10/11 00:50:35;;;;;;;11.45;2.47;;;6.00;99.90;;;;;;5049982;28;20060;-60
2022/10/11 00:53:06;;;;;;;12.55;2.80;;;6.00;99.90;;;;;;5062075;28;20055;-57
2022/10/11 00:55:54;;;;;;;15.73;3.08;;;6.00;99.90;;;;;;5066887;28;20059;-61
2022/10/11 00:58:22;;;;;;;11.55;2.35;;;6.10;99.90;;;;;;5059374;28;20045;-59
2022/10/11 01:00:49;;;;;;;14.90;2.45;;;6.30;99.90;;;;;;5060627;28;20056;-61
2022/10/11 01:03:17;;;;;;;9.32;2.47;;;6.30;99.90;;;;;;5061455;28;20063;-61
2022/10/11 01:05:43;;;;;;;9.88;2.63;;;6.40;99.90;;;;;;5063376;28;20055;-61
2022/10/11 01:08:09;;;;;;;16.85;3.00;;;6.40;99.90;;;;;;5074434;28;20066;-61
2022/10/11 01:10:35;;;;;;;12.32;1.90;;;6.40;99.90;;;;;;5074621;28;20065;-60
2022/10/11 01:13:35;;;;;;;12.02;4.28;;;6.40;99.90;;;;;;5064638;28;20063;-60
2022/10/11 01:16:24;;;;;;;15.85;2.33;;;6.40;99.90;;;;;;5059441;28;20444;-60
2022/10/11 01:18:53;;;;;;;12.63;3.45;;;6.40;99.90;;;;;;5034871;28;20870;-60
2022/10/11 01:21:29;;;;;;;11.93;2.53;;;6.40;99.90;;;;;;5050585;28;20044;-61
2022/10/11 01:24:19;;;;;;;8.57;2.28;;;6.40;99.90;;;;;;5070851;28;20131;-60
2022/10/11 01:26:53;;;;;;;13.88;2.22;;;6.30;99.90;;;;;;5063668;28;20048;-60
2022/10/11 01:29:20;;;;;;;12.82;2.47;;;6.30;99.90;;;;;;5064440;28;20954;-60
2022/10/11 01:31:57;;;;;;;13.05;2.28;;;6.20;99.90;;;;;;5043082;28;20106;-60
2022/10/11 01:34:57;;;;;;;12.85;2.30;;;6.20;99.90;;;;;;5068246;28;20423;-60
2022/10/11 01:37:36;;;;;;;13.77;2.42;;;6.20;99.90;;;;;;5044675;28;20052;-61
2022/10/11 01:40:12;;;;;;;13.52;2.72;;;6.10;99.90;;;;;;5066989;28;20464;-60
2022/10/11 01:42:40;;;;;;;11.80;2.92;;;6.20;99.90;;;;;;5071669;28;20597;-60
2022/10/11 01:45:17;;;;;;;10.43;2.10;;;6.10;99.90;;;;;;5065059;28;20475;-61
2022/10/11 01:47:44;;;;;;;12.05;2.40;;;6.10;99.90;;;;;;5069566;28;20131;-62
2022/10/11 01:50:32;;;;;;;15.25;2.65;;;6.10;99.90;;;;;;5071348;28;20578;-60
2022/10/11 01:53:11;;;;;;;10.88;2.10;;;6.00;99.90;;;;;;5070556;28;20384;-60
2022/10/11 01:55:47;;;;;;;10.48;2.78;;;6.10;99.90;;;;;;5064213;28;20047;-60
2022/10/11 01:58:23;;;;;;;10.27;2.80;;;6.00;99.90;;;;;;5060523;28;20399;-60
2022/10/11 02:01:12;;;;;;;10.60;2.10;;;6.00;99.90;;;;;;5068017;28;20052;-61
2022/10/11 02:03:46;;;;;;;10.82;2.40;;;6.00;99.90;;;;;;4969728;28;20200;-60
2022/10/11 02:06:36;;;;;;;14.02;2.45;;;6.00;99.90;;;;;;4951488;28;20090;-61
2022/10/11 02:09:28;;;;;;;12.43;3.13;;;5.90;99.90;;;;;;4961797;28;20077;-60
2022/10/11 02:12:00;;;;;;;10.45;2.33;;;5.80;99.90;;;;;;4962141;28;20050;-60
2022/10/11 02:14:33;;;;;;;10.38;2.38;;;5.90;99.90;;;;;;4952626;28;20101;-61
2022/10/11 02:17:08;;;;;;;11.63;2.95;;;5.80;99.90;;;;;;4957291;28;20042;-61
2022/10/11 02:19:37;;;;;;;13.27;2.38;;;5.80;99.90;;;;;;4964825;28;20060;-61
2022/10/11 02:22:13;;;;;;;11.50;2.50;;;5.70;99.90;;;;;;4952062;28;20403;-60
2022/10/11 02:24:43;;;;;;;9.98;2.40;;;5.80;99.90;;;;;;4956084;28;20098;-60
2022/10/11 02:27:10;;;;;;;13.20;2.55;;;5.80;99.90;;;;;;4967063;28;20059;-61
2022/10/11 02:29:40;;;;;;;10.02;2.45;;;5.80;99.90;;;;;;4964141;28;20050;-60
2022/10/11 02:32:08;;;;;;;12.35;2.17;;;5.80;99.90;;;;;;4958583;28;20059;-59
2022/10/11 02:34:45;;;;;;;12.48;2.45;;;5.70;99.90;;;;;;4960629;28;20203;-60
2022/10/11 02:37:34;;;;;;;17.63;3.30;;;5.70;99.90;;;;;;4948791;28;20415;-60
2022/10/11 02:40:21;;;;;;;8.88;2.28;;;5.70;99.90;;;;;;4951888;28;20064;-60
2022/10/11 02:43:08;;;;;;;14.52;2.95;;;5.70;99.90;;;;;;5064782;28;20051;-60
2022/10/11 02:45:38;;;;;;;14.05;2.78;;;5.80;99.90;;;;;;5065552;28;20057;-60
2022/10/11 02:48:06;;;;;;;15.18;2.90;;;5.90;99.90;;;;;;5061793;28;20049;-60
2022/10/11 02:50:32;;;;;;;10.15;2.45;;;5.90;99.90;;;;;;5044742;28;20189;-60
2022/10/11 02:52:58;;;;;;;11.85;3.10;;;5.90;99.90;;;;;;5063879;28;20056;-60
2022/10/11 02:55:24;;;;;;;15.32;2.40;;;5.90;99.90;;;;;;5066303;28;20080;-61
2022/10/11 02:57:49;;;;;;;13.95;2.55;;;5.90;99.90;;;;;;5046405;28;20148;-60
2022/10/11 03:00:15;;;;;;;10.82;2.42;;;5.90;99.90;;;;;;5072489;28;20070;-60
2022/10/11 03:02:41;;;;;;;13.80;2.28;;;5.80;99.90;;;;;;5064861;28;20127;-59
2022/10/11 03:05:08;;;;;;;11.45;2.00;;;5.90;99.90;;;;;;5066419;28;20067;-60
2022/10/11 03:07:35;;;;;;;11.68;2.55;;;5.90;99.90;;;;;;5064766;28;20117;-60
2022/10/11 03:10:02;;;;;;;10.18;2.30;;;5.80;99.90;;;;;;5048367;28;20055;-60
2022/10/11 03:12:27;;;;;;;7.55;1.75;;;5.80;99.90;;;;;;5066803;28;20490;-60
2022/10/11 03:14:53;;;;;;;16.20;2.65;;;5.70;99.90;;;;;;5072589;28;20058;-61
2022/10/11 03:17:19;;;;;;;16.42;3.25;;;5.80;99.90;;;;;;5065611;28;20045;-62
2022/10/11 03:19:46;;;;;;;8.65;2.28;;;5.80;99.90;;;;;;5045018;28;20053;-60
2022/10/11 03:22:15;;;;;;;13.35;2.75;;;5.80;99.90;;;;;;5062423;28;20048;-58
2022/10/11 03:24:41;;;;;;;14.95;2.90;;;5.80;99.90;;;;;;5061930;28;20044;-60
2022/10/11 03:27:07;;;;;;;15.73;2.15;;;5.80;99.90;;;;;;5061729;28;20098;-60
2022/10/11 03:29:33;;;;;;;10.85;2.20;;;5.80;99.90;;;;;;5062993;28;20095;-60
2022/10/11 03:32:00;;;;;;;8.65;2.20;;;5.80;99.90;;;;;;5062313;28;20045;-61
2022/10/11 03:34:26;;;;;;;13.85;1.83;;;5.70;99.90;;;;;;5043578;28;20117;-60
2022/10/11 03:36:52;;;;;;;10.60;2.40;;;5.70;99.90;;;;;;5042297;28;20061;-59
2022/10/11 03:39:18;;;;;;;10.00;2.17;;;5.70;99.90;;;;;;5043593;28;20095;-60
2022/10/11 03:41:45;;;;;;;11.43;2.30;;;5.60;99.90;;;;;;5061857;28;20044;-60
2022/10/11 03:44:11;;;;;;;11.38;2.25;;;5.60;99.90;;;;;;5055443;28;20036;-60
2022/10/11 03:46:37;;;;;;;10.50;2.50;;;5.60;99.90;;;;;;5067454;28;20052;-60
2022/10/11 03:49:03;;;;;;;13.63;2.53;;;5.50;99.90;;;;;;5068222;28;20135;-60
2022/10/11 03:51:32;;;;;;;10.82;2.53;;;5.50;99.90;;;;;;5062051;28;20048;-60
2022/10/11 03:53:58;;;;;;;11.60;2.42;;;5.50;99.90;;;;;;5073889;28;20572;-60
2022/10/11 03:56:24;;;;;;;12.10;2.95;;;5.50;99.90;;;;;;5061386;28;20052;-60
2022/10/11 03:58:50;;;;;;;8.35;2.22;;;5.40;99.90;;;;;;5058245;28;20040;-60
2022/10/11 04:01:16;;;;;;;14.55;2.58;;;5.40;99.90;;;;;;5061380;28;20095;-59
2022/10/11 04:03:41;;;;;;;8.55;2.45;;;5.40;99.90;;;;;;5061352;28;20057;-60
2022/10/11 04:06:07;;;;;;;7.82;2.10;;;5.40;99.90;;;;;;5062171;28;20048;-60
2022/10/11 04:08:33;;;;;;;12.27;3.00;;;5.40;99.90;;;;;;5069191;28;20063;-60
2022/10/11 04:11:01;;;;;;;11.10;2.30;;;5.40;99.90;;;;;;5059371;28;20045;-60
2022/10/11 04:13:27;;;;;;;9.30;2.28;;;5.40;99.90;;;;;;5044041;28;20048;-61
2022/10/11 04:15:53;;;;;;;13.88;2.70;;;5.40;99.90;;;;;;5036281;28;20069;-60
2022/10/11 04:18:19;;;;;;;15.10;5.00;;;5.30;99.90;;;;;;5049542;28;20044;-60
2022/10/11 04:20:46;;;;;;;10.23;3.00;;;5.30;99.90;;;;;;5061812;28;20127;-60
2022/10/11 04:23:12;;;;;;;10.63;2.30;;;5.30;99.90;;;;;;5043282;28;20048;-61
2022/10/11 04:25:38;;;;;;;13.80;2.60;;;5.40;99.90;;;;;;5062957;28;20878;-62
2022/10/11 04:28:06;;;;;;;13.77;2.65;;;5.40;99.90;;;;;;5061288;28;20044;-60
2022/10/11 04:30:33;;;;;;;10.70;2.35;;;5.50;99.90;;;;;;5059988;28;20087;-60
2022/10/11 04:33:01;;;;;;;14.52;2.63;;;5.40;99.90;;;;;;5064429;28;20051;-59
2022/10/11 04:35:27;;;;;;;12.57;3.08;;;5.50;99.90;;;;;;5062524;28;20044;-59
2022/10/11 04:37:53;;;;;;;15.13;3.20;;;5.50;99.90;;;;;;5047110;28;20479;-60
2022/10/11 04:40:19;;;;;;;11.80;2.60;;;5.50;99.90;;;;;;5062243;28;20040;-60
2022/10/11 04:42:46;;;;;;;15.38;3.47;;;5.50;99.90;;;;;;5067394;28;20056;-61
2022/10/11 04:45:12;;;;;;;14.50;2.60;;;5.50;99.90;;;;;;5060469;28;20056;-60
2022/10/11 04:47:39;;;;;;;7.90;2.28;;;5.50;99.90;;;;;;5058075;28;20411;-61
2022/10/11 04:50:06;;;;;;;11.40;2.35;;;5.60;99.90;;;;;;5060705;28;20060;-60
2022/10/11 04:52:31;;;;;;;12.52;2.45;;;5.50;99.90;;;;;;5057053;28;20410;-60
2022/10/11 04:54:57;;;;;;;10.27;2.20;;;5.50;99.90;;;;;;5060934;28;20048;-60
2022/10/11 04:57:23;;;;;;;10.25;2.25;;;5.50;99.90;;;;;;5065913;28;20045;-59
2022/10/11 04:59:50;;;;;;;14.95;3.55;;;5.60;99.90;;;;;;5041935;28;20479;-60
2022/10/11 05:02:17;;;;;;;10.40;2.78;;;5.50;99.90;;;;;;5060880;28;20056;-60
2022/10/11 05:04:43;;;;;;;10.93;2.33;;;5.50;99.90;;;;;;5067555;28;20109;-60
2022/10/11 05:07:09;;;;;;;13.68;2.65;;;5.50;99.90;;;;;;5066091;28;20049;-60
2022/10/11 05:09:34;;;;;;;10.73;2.70;;;5.50;99.90;;;;;;5067194;28;20400;-60
2022/10/11 05:12:02;;;;;;;12.10;2.92;;;5.50;99.90;;;;;;5066877;28;20044;-59
2022/10/11 05:14:28;;;;;;;8.27;2.13;;;5.40;99.90;;;;;;5066187;28;20113;-61
2022/10/11 05:16:54;;;;;;;14.43;3.10;;;5.40;99.90;;;;;;5061019;28;20503;-60
2022/10/11 05:19:20;;;;;;;15.27;2.92;;;5.40;99.90;;;;;;5062008;28;20048;-60
2022/10/11 05:21:46;;;;;;;10.10;2.55;;;5.40;99.90;;;;;;5042749;28;20053;-60
2022/10/11 05:24:13;;;;;;;16.52;2.35;;;5.40;99.90;;;;;;5060013;28;20090;-60
2022/10/11 05:26:38;;;;;;;11.23;2.92;;;5.40;99.90;;;;;;5065310;28;20051;-60
2022/10/11 05:29:04;;;;;;;20.40;2.97;;;5.40;99.90;;;;;;5042559;28;20110;-60
2022/10/11 05:31:32;;;;;;;13.63;2.50;;;5.40;99.90;;;;;;5059613;28;20048;-61
2022/10/11 05:33:58;;;;;;;13.52;2.47;;;5.40;99.90;;;;;;5042615;28;20055;-60
2022/10/11 05:36:24;;;;;;;13.88;2.42;;;5.40;99.90;;;;;;5069423;28;20071;-61
2022/10/11 05:38:50;;;;;;;13.05;2.88;;;5.40;99.90;;;;;;5044025;28;20118;-62
2022/10/11 05:41:17;;;;;;;17.42;2.85;;;5.50;99.90;;;;;;5047992;28;20082;-61
2022/10/11 05:43:44;;;;;;;7.90;2.85;;;5.40;99.90;;;;;;5060433;28;20052;-59
2022/10/11 05:46:11;;;;;;;9.57;2.30;;;5.50;99.90;;;;;;5042585;28;20056;-60
2022/10/11 05:48:37;;;;;;;10.10;2.30;;;5.40;99.90;;;;;;5049735;28;20525;-60
2022/10/11 05:51:06;;;;;;;9.07;2.60;;;5.40;99.90;;;;;;5072666;28;20446;-61
2022/10/11 05:53:32;;;;;;;11.45;2.47;;;5.40;99.90;;;;;;5048270;28;20083;-61
2022/10/11 05:55:58;;;;;;;13.00;3.22;;;5.40;99.90;;;;;;5049026;28;20545;-60
2022/10/11 05:58:24;;;;;;;9.43;2.95;;;5.50;99.90;;;;;;5063577;28;20052;-61
2022/10/11 06:00:50;;;;;;;12.25;2.70;;;5.40;99.90;;;;;;5042403;28;20118;-60
2022/10/11 06:03:16;;;;;;;9.15;2.50;;;5.50;99.90;;;;;;5043492;28;20139;-61
2022/10/11 06:05:42;;;;;;;13.77;3.25;;;5.50;99.90;;;;;;5042013;28;20080;-61
2022/10/11 06:08:09;;;;;;;16.30;2.88;;;5.60;99.90;;;;;;5041770;28;20103;-61
2022/10/11 06:10:37;;;;;;;14.77;2.60;;;5.60;99.90;;;;;;5040111;28;20110;-61
2022/10/11 06:13:03;;;;;;;7.10;2.13;;;5.60;99.90;;;;;;5047133;28;20050;-60
2022/10/11 06:15:29;;;;;;;9.30;2.00;;;5.70;99.90;;;;;;5046198;28;20063;-61
2022/10/11 06:17:55;;;;;;;13.93;2.40;;;5.70;99.90;;;;;;5038978;28;20048;-60
2022/10/11 06:20:22;;;;;;;11.05;3.25;;;5.60;99.90;;;;;;5046363;28;20396;-61
2022/10/11 06:22:48;;;;;;;13.35;2.53;;;5.70;99.90;;;;;;5049718;28;20136;-61
2022/10/11 06:25:14;;;;;;;15.75;3.45;;;5.80;99.90;;;;;;5042730;28;20102;-61
2022/10/11 06:27:40;;;;;;;8.35;2.70;;;5.90;99.90;;;;;;5051175;28;20049;-59
2022/10/11 06:30:06;;;;;;;15.57;3.78;;;6.00;99.90;;;;;;5050011;28;20147;-60
2022/10/11 06:32:33;;;;;;;8.95;2.30;;;6.10;99.90;;;;;;5043772;28;20464;-60
2022/10/11 06:34:59;;;;;;;16.85;2.92;;;6.20;99.90;;;;;;5041723;28;20739;-61
2022/10/11 06:37:25;;;;;;;11.85;3.20;;;6.30;99.90;;;;;;5039747;28;20057;-61
2022/10/11 06:39:51;;;;;;;14.52;2.97;;;6.50;99.90;;;;;;5043438;28;20083;-61
2022/10/11 06:42:19;;;;;;;18.65;3.17;;;6.60;99.90;;;;;;5041706;28;20111;-61
2022/10/11 06:44:45;;;;;;;16.85;3.03;;;6.80;99.90;;;;;;5039067;28;20131;-61
2022/10/11 06:47:11;;;;;;;10.25;2.75;;;7.00;99.90;;;;;;5041818;28;20190;-60
2022/10/11 06:49:38;;;;;;;13.07;2.95;;;7.10;99.90;;;;;;5042507;28;20082;-62
2022/10/11 06:52:08;;;;;;;9.88;2.92;;;7.30;99.90;;;;;;5041208;28;20037;-61
2022/10/11 06:54:34;;;;;;;15.63;3.42;;;7.40;99.90;;;;;;5044317;28;20040;-61
2022/10/11 06:57:00;;;;;;;16.77;3.88;;;7.50;99.90;;;;;;5043324;28;20048;-59
2022/10/11 06:59:26;;;;;;;12.10;2.35;;;7.60;99.90;;;;;;5043149;28;20081;-60
2022/10/11 07:01:52;;;;;;;13.57;2.65;;;7.70;99.90;;;;;;5044363;28;20105;-60
2022/10/11 07:04:18;;;;;;;17.45;3.05;;;7.70;99.90;;;;;;5042334;28;20140;-61
2022/10/11 07:06:43;;;;;;;12.38;3.22;;;7.70;99.90;;;;;;5043686;28;20068;-60
2022/10/11 07:09:09;;;;;;;13.15;3.20;;;7.80;99.90;;;;;;5042139;28;20040;-61
2022/10/11 07:11:36;;;;;;;11.00;2.80;;;7.80;99.90;;;;;;5041108;28;20049;-61
2022/10/11 07:14:06;;;;;;;13.48;2.88;;;7.90;99.90;;;;;;5040741;28;20053;-61
2022/10/11 07:16:36;;;;;;;11.10;2.80;;;8.00;99.90;;;;;;5044158;28;20055;-60
2022/10/11 07:19:04;;;;;;;16.73;4.00;;;8.10;99.90;;;;;;5040498;28;20059;-60
2022/10/11 07:21:32;;;;;;;14.85;3.60;;;8.20;99.90;;;;;;5043742;28;20496;-62
2022/10/11 07:23:59;;;;;;;14.02;3.80;;;8.30;99.90;;;;;;5043408;28;20041;-61
2022/10/11 07:26:26;;;;;;;17.33;3.80;;;8.50;99.90;;;;;;5039066;28;20060;-61
2022/10/11 07:28:52;;;;;;;14.60;2.83;;;8.80;99.90;;;;;;5047875;28;20052;-61
2022/10/11 07:31:22;;;;;;;14.73;3.28;;;9.00;99.90;;;;;;5041522;28;20056;-61
2022/10/11 07:33:47;;;;;;;12.60;4.40;;;9.20;99.90;;;;;;5048207;28;20049;-61
2022/10/11 07:36:14;;;;;;;20.23;3.78;;;9.50;99.90;;;;;;5044791;28;20053;-61
2022/10/11 07:38:41;;;;;;;12.40;3.47;;;9.70;99.90;;;;;;5047295;28;20053;-61
2022/10/11 07:41:08;;;;;;;19.70;3.97;;;9.90;99.90;;;;;;5048107;28;20097;-61
2022/10/11 07:43:35;;;;;;;10.50;3.03;;;10.10;99.90;;;;;;5045422;28;20052;-62
2022/10/11 07:46:02;;;;;;;15.73;3.97;;;10.30;99.90;;;;;;5049113;28;20049;-61
2022/10/11 07:48:30;;;;;;;10.85;2.88;;;10.50;99.90;;;;;;5042645;28;20053;-61
2022/10/11 07:51:10;;;;;;;16.75;3.35;;;10.70;99.90;;;;;;5049088;28;20090;-62
2022/10/11 07:53:41;;;;;;;12.55;3.40;;;11.00;99.90;;;;;;5052073;28;20075;-60
2022/10/11 07:56:09;;;;;;;13.32;3.65;;;11.30;99.90;;;;;;5051121;28;20103;-61
2022/10/11 07:58:35;;;;;;;14.85;3.85;;;11.50;99.90;;;;;;5041714;28;20402;-61
2022/10/11 08:01:00;;;;;;;15.75;3.58;;;11.50;99.90;;;;;;5047818;28;20090;-61
2022/10/11 08:03:26;;;;;;;14.15;4.43;;;11.60;99.90;;;;;;5058135;28;20056;-62
2022/10/11 08:05:52;;;;;;;18.73;4.00;;;11.60;99.90;;;;;;5063981;28;20495;-63
2022/10/11 08:08:19;;;;;;;10.93;2.60;;;11.70;99.90;;;;;;5064059;28;20136;-61
2022/10/11 08:10:45;;;;;;;12.75;3.05;;;11.70;99.90;;;;;;5056088;28;20052;-62
2022/10/11 08:13:11;;;;;;;10.20;2.85;;;11.70;99.90;;;;;;5045662;28;20078;-61
2022/10/11 08:15:37;;;;;;;13.98;3.65;;;11.80;99.90;;;;;;5053341;28;20049;-60
2022/10/11 08:18:03;;;;;;;19.67;4.10;;;11.70;99.90;;;;;;5039363;28;20037;-62
2022/10/11 08:20:30;;;;;;;16.50;3.40;;;11.70;99.90;;;;;;5063454;28;20053;-62
2022/10/11 08:22:56;;;;;;;17.65;3.90;;;11.80;99.90;;;;;;5053136;28;20119;-62
2022/10/11 08:25:22;;;;;;;17.35;3.75;;;11.80;99.90;;;;;;5039419;28;20559;-62
2022/10/11 08:27:47;;;;;;;12.98;3.30;;;11.80;99.90;;;;;;5053490;28;20056;-61
2022/10/11 08:30:13;;;;;;;14.68;3.60;;;11.90;99.90;;;;;;5042571;28;20067;-62
2022/10/11 08:32:39;;;;;;;16.45;4.22;;;12.00;99.90;;;;;;5058310;28;20048;-62
2022/10/11 08:35:06;;;;;;;18.67;4.30;;;12.10;99.90;;;;;;5060140;28;20083;-61
2022/10/11 08:37:31;;;;;;;14.35;3.83;;;12.20;99.90;;;;;;5059042;28;20040;-62
2022/10/11 08:39:58;;;;;;;19.05;4.70;;;12.30;99.90;;;;;;5041026;28;20094;-62
2022/10/11 08:42:41;;;;;;;10.98;2.95;;;12.40;99.90;;;;;;5058880;28;20589;-62
2022/10/11 08:45:19;;;;;;;18.65;3.20;;;12.50;99.90;;;;;;5037697;28;20101;-62
2022/10/11 08:47:46;;;;;;;15.30;3.88;;;12.60;99.90;;;;;;5060256;28;20048;-62
2022/10/11 08:50:20;;;;;;;17.75;3.95;;;12.50;99.90;;;;;;5060771;28;20127;-63
2022/10/11 08:52:53;;;;;;;14.43;3.58;;;12.60;99.90;;;;;;5061150;28;20048;-61
2022/10/11 08:55:30;;;;;;;17.98;4.47;;;12.70;99.90;;;;;;5044795;28;20056;-62
2022/10/11 08:57:57;;;;;;;11.07;3.13;;;12.80;99.90;;;;;;5059509;28;20063;-62
2022/10/11 09:00:29;;;;;;;17.15;3.33;;;12.80;99.90;;;;;;5058892;28;20487;-62
2022/10/11 09:03:02;;;;;;;15.07;4.15;;;12.90;99.90;;;;;;5058066;28;20104;-62
2022/10/11 09:05:34;;;;;;;15.32;3.20;;;13.00;99.90;;;;;;5058365;28;20087;-63
2022/10/11 09:08:23;;;;;;;17.95;4.22;;;13.00;99.90;;;;;;5063027;28;20052;-62
2022/10/11 09:11:08;;;;;;;14.10;3.38;;;13.00;99.90;;;;;;4996961;28;20056;-61
2022/10/11 09:13:42;;;;;;;16.83;3.67;;;13.10;99.90;;;;;;4994570;28;20054;-62
2022/10/11 09:16:36;;;;;;;11.48;2.80;;;13.10;99.90;;;;;;4998540;28;20172;-62
2022/10/11 09:19:39;;;;;;;16.17;3.28;;;13.10;99.90;;;;;;4998614;28;20057;-62
2022/10/11 09:22:27;;;;;;;14.02;3.22;;;13.10;99.90;;;;;;4997734;28;20211;-62
2022/10/11 09:25:10;;;;;;;15.65;4.07;;;13.00;99.90;;;;;;4998846;28;20156;-63
2022/10/11 09:27:44;;;;;;;12.98;3.78;;;13.00;99.90;;;;;;5002612;28;20189;-61
2022/10/11 09:30:18;;;;;;;16.17;3.13;;;13.00;99.90;;;;;;5001740;28;20054;-61
2022/10/11 09:33:02;;;;;;;11.50;2.97;;;13.10;99.90;;;;;;5001597;28;20921;-62
2022/10/11 09:35:34;;;;;;;19.23;3.63;;;13.10;99.90;;;;;;4974687;28;20058;-63
2022/10/11 09:38:20;;;;;;;16.87;3.40;;;13.10;99.90;;;;;;5000770;28;20910;-61
2022/10/11 09:40:56;;;;;;;12.75;3.58;;;13.10;99.90;;;;;;5014004;28;20432;-61
2022/10/11 09:43:22;;;;;;;13.60;2.92;;;13.20;99.90;;;;;;4988267;28;20057;-62
2022/10/11 09:45:51;;;;;;;16.00;3.97;;;13.30;99.90;;;;;;4990603;28;20045;-61
2022/10/11 09:48:27;;;;;;;15.50;3.05;;;13.40;99.90;;;;;;5033860;28;20056;-60
2022/10/11 09:51:03;;;;;;;13.93;3.22;;;13.50;99.90;;;;;;5064167;28;20564;-62
2022/10/11 09:53:52;;;;;;;15.98;3.10;;;13.50;99.90;;;;;;5053122;28;20735;-61
2022/10/11 09:56:23;;;;;;;12.88;3.20;;;13.60;99.90;;;;;;4993367;28;20484;-63
2022/10/11 09:59:14;;;;;;;19.40;3.80;;;13.80;99.90;;;;;;4981920;28;20120;-61
2022/10/11 10:01:40;;;;;;;12.73;3.20;;;13.80;99.90;;;;;;4980698;28;20062;-62
2022/10/11 10:04:11;;;;;;;12.10;3.03;;;13.90;99.90;;;;;;4981492;28;20185;-61
2022/10/11 10:06:37;;;;;;;13.57;2.97;;;14.00;99.90;;;;;;4981752;28;20050;-61
2022/10/11 10:09:29;;;;;;;14.07;2.85;;;14.10;99.90;;;;;;4965496;28;20074;-61
2022/10/11 10:11:56;;;;;;;13.77;3.65;;;14.30;99.90;;;;;;4980370;28;20050;-62
2022/10/11 10:14:28;;;;;;;15.00;3.58;;;14.40;99.90;;;;;;4964034;28;20054;-61
2022/10/11 10:17:07;;;;;;;16.17;3.37;;;14.70;99.90;;;;;;4979393;28;20049;-62
2022/10/11 10:19:46;;;;;;;14.77;3.08;;;15.00;99.90;;;;;;4948562;28;20058;-62
2022/10/11 10:22:21;;;;;;;16.67;3.35;;;15.20;99.90;;;;;;4964276;28;20058;-61
2022/10/11 10:24:49;;;;;;;10.02;2.40;;;15.30;99.90;;;;;;4979611;28;20042;-61
2022/10/11 10:27:22;;;;;;;9.45;2.65;;;15.30;99.90;;;;;;4990058;28;20065;-61
2022/10/11 10:30:02;;;;;;;13.73;2.92;;;15.20;99.90;;;;;;4986085;28;20464;-61
2022/10/11 10:32:39;;;;;;;13.60;2.65;;;15.30;99.90;;;;;;4970212;28;20054;-62
2022/10/11 10:35:30;;;;;;;12.50;2.40;;;15.20;99.90;;;;;;5042414;28;20068;-63
2022/10/11 10:38:18;;;;;;;9.65;2.33;;;15.30;99.90;;;;;;5041378;28;21007;-62
2022/10/11 10:41:05;;;;;;;10.57;3.47;;;15.20;99.90;;;;;;5064346;28;20124;-62
2022/10/11 10:43:37;;;;;;;9.23;2.10;;;14.90;99.90;;;;;;5037799;28;20096;-62
2022/10/11 10:46:28;;;;;;;13.40;3.05;;;14.70;99.90;;;;;;5019554;28;20412;-62
2022/10/11 10:49:13;;;;;;;10.98;2.58;;;14.40;99.90;;;;;;5042348;28;20114;-62
2022/10/11 10:52:04;;;;;;;12.85;3.15;;;14.30;99.90;;;;;;5048560;28;20048;-61
2022/10/11 10:54:55;;;;;;;13.73;2.55;;;14.30;99.90;;;;;;5058990;28;20053;-62
2022/10/11 10:57:30;;;;;;;10.68;2.95;;;14.20;99.90;;;;;;5048048;28;20049;-62
2022/10/11 11:00:18;;;;;;;11.55;2.47;;;14.30;99.90;;;;;;5040616;28;20059;-62
2022/10/11 11:02:56;;;;;;;13.27;2.95;;;14.40;99.90;;;;;;5074279;28;20071;-62
2022/10/11 11:05:40;;;;;;;11.73;3.45;;;14.50;99.90;;;;;;5068771;28;20136;-62
2022/10/11 11:08:30;;;;;;;10.82;2.67;;;14.60;99.90;;;;;;5052776;28;20410;-62
2022/10/11 11:11:24;;;;;;;11.15;2.42;;;14.60;99.90;;;;;;5061916;28;20177;-62
2022/10/11 11:14:07;;;;;;;16.13;5.00;;;14.60;99.90;;;;;;5063191;28;20056;-62
2022/10/11 11:16:57;;;;;;;12.27;3.13;;;14.60;99.90;;;;;;5063223;28;20545;-62
2022/10/11 11:19:50;;;;;;;9.52;2.45;;;14.70;99.90;;;;;;5043141;28;20074;-62
2022/10/11 11:22:29;;;;;;;9.38;2.83;;;14.90;99.90;;;;;;5063000;28;20054;-62
2022/10/11 11:24:55;;;;;;;12.65;3.13;;;15.10;99.90;;;;;;5044176;28;20056;-62
2022/10/11 11:27:40;;;;;;;11.18;2.20;;;15.30;99.90;;;;;;5061774;28;20059;-62
2022/10/11 11:30:18;;;;;;;13.15;2.80;;;15.50;99.90;;;;;;5046652;28;20099;-62
2022/10/11 11:33:12;;;;;;;16.67;3.08;;;15.50;99.90;;;;;;5054857;28;20061;-62
2022/10/11 11:35:41;;;;;;;15.85;2.72;;;15.60;99.90;;;;;;5043385;28;20048;-63
2022/10/11 11:38:39;;;;;;;10.90;2.47;;;15.70;99.90;;;;;;5063849;28;20124;-62
2022/10/11 11:41:18;;;;;;;10.65;2.30;;;15.50;99.90;;;;;;5062246;28;20057;-62
2022/10/11 11:43:55;;;;;;;13.52;3.78;;;15.60;99.90;;;;;;5062922;28;20056;-62
2022/10/11 11:46:28;;;;;;;20.77;5.43;;;15.60;99.90;;;;;;5062281;28;20052;-62
2022/10/11 11:48:57;;;;;;;11.25;2.88;;;15.60;99.90;;;;;;5041857;28;20211;-62
2022/10/11 11:51:30;;;;;;;15.02;3.72;;;15.60;99.90;;;;;;5058138;28;20048;-62
2022/10/11 11:54:20;;;;;;;10.05;2.72;;;15.60;99.90;;;;;;5061547;28;20054;-63
2022/10/11 11:57:24;;;;;;;21.55;5.63;;;15.50;99.90;;;;;;5051293;28;20064;-61
2022/10/11 12:00:02;;;;;;;9.57;2.33;;;15.50;99.90;;;;;;5061116;28;20105;-60
2022/10/11 12:02:40;;;;;;;10.70;2.58;;;15.40;99.90;;;;;;5050321;28;20159;-60
2022/10/11 12:05:09;;;;;;;9.05;2.15;;;15.40;99.90;;;;;;5040317;28;20063;-61
2022/10/11 12:08:05;;;;;;;9.90;2.35;;;15.30;99.90;;;;;;5061414;28;20190;-61
2022/10/11 12:10:48;;;;;;;10.82;2.40;;;15.10;99.90;;;;;;5061542;28;20127;-60
2022/10/11 12:13:25;;;;;;;10.10;2.40;;;15.00;99.90;;;;;;5061191;28;20411;-61
2022/10/11 12:16:08;;;;;;;14.32;3.42;;;15.00;99.90;;;;;;5042400;28;20060;-60
2022/10/11 12:19:13;;;;;;;11.55;2.65;;;15.10;99.90;;;;;;5042232;28;20044;-61
2022/10/11 12:21:43;;;;;;;6.20;1.88;;;15.20;99.90;;;;;;4942570;28;21408;-61
2022/10/11 12:24:23;;;;;;;9.93;2.47;;;15.40;99.90;;;;;;4940055;28;20054;-61
2022/10/11 12:26:54;;;;;;;9.00;2.33;;;15.40;99.90;;;;;;4956760;28;20109;-60
2022/10/11 12:29:38;;;;;;;8.85;2.13;;;15.60;99.90;;;;;;4955714;28;20051;-60
2022/10/11 12:32:04;;;;;;;6.93;2.08;;;15.70;99.90;;;;;;4940455;28;20230;-60
2022/10/11 12:34:48;;;;;;;6.85;1.92;;;15.70;99.90;;;;;;4955222;28;20046;-61
2022/10/11 12:37:23;;;;;;;9.13;2.30;;;15.80;99.90;;;;;;4955168;28;20117;-60
2022/10/11 12:39:53;;;;;;;8.20;2.47;;;15.90;99.90;;;;;;4945806;28;20070;-60
2022/10/11 12:42:32;;;;;;;14.38;2.30;;;15.90;99.90;;;;;;4952447;28;20105;-60
2022/10/11 12:45:10;;;;;;;8.82;2.10;;;15.90;99.90;;;;;;4955297;28;20062;-61
2022/10/11 12:47:47;;;;;;;7.70;2.42;;;15.70;99.90;;;;;;4940332;28;20085;-61
2022/10/11 12:50:25;;;;;;;8.00;1.80;;;15.70;99.90;;;;;;4939419;28;20429;-60
2022/10/11 12:53:14;;;;;;;6.18;1.70;;;15.70;99.90;;;;;;4964508;28;20065;-61
2022/10/11 12:55:55;;;;;;;9.93;1.92;;;15.60;99.90;;;;;;4958236;28;20690;-60
2022/10/11 12:58:29;;;;;;;9.18;2.03;;;15.60;99.90;;;;;;4971378;28;20450;-60
2022/10/11 13:00:55;;;;;;;8.73;2.20;;;15.60;99.90;;;;;;5036939;28;20056;-60
2022/10/11 13:03:27;;;;;;;7.85;2.20;;;15.60;99.90;;;;;;5054109;28;20494;-60
2022/10/11 13:05:55;;;;;;;8.38;2.30;;;15.60;99.90;;;;;;5055880;28;20066;-61
2022/10/11 13:08:35;;;;;;;7.78;2.25;;;15.60;99.90;;;;;;5055380;28;20106;-60
2022/10/11 13:11:05;;;;;;;6.82;2.15;;;15.50;99.90;;;;;;5055797;28;20040;-61